Time;durP1;ratioP1;P1;durP2;ratioP2;P2;SDS_P1;SDS_P2;PMS_P1;PMS_P2;Temp;Humidity;BMP_temperature;BMP_pressure;BME280_temperature;BME280_humidity;BME280_pressure;Samples;Min_cycle;Max_cycle;Signal;HPM_P1;HPM_P2
2023/05/13 00:00:48;;;;;;;7.80;4.75;;;;;;;14.14;71.35;100536.28;10420874;28;20129;-60
2023/05/13 00:05:50;;;;;;;6.82;4.07;;;;;;;14.22;71.06;100535.31;10427895;28;20084;-60
2023/05/13 00:10:51;;;;;;;7.05;3.33;;;;;;;14.32;71.09;100541.22;10426049;28;20049;-60
2023/05/13 00:15:52;;;;;;;7.32;3.70;;;;;;;14.39;71.20;100544.78;10428950;28;20095;-60
2023/05/13 00:20:55;;;;;;;4.68;3.22;;;;;;;14.34;71.62;100533.72;10425665;28;20061;-62
2023/05/13 00:25:56;;;;;;;8.15;4.43;;;;;;;14.17;72.05;100525.06;10424597;28;20132;-60
2023/05/13 00:30:57;;;;;;;5.50;4.10;;;;;;;14.14;72.71;100525.47;10423160;28;20080;-60
2023/05/13 00:35:59;;;;;;;4.93;4.03;;;;;;;13.99;73.18;100516.59;10426020;28;20526;-60
2023/05/13 00:41:01;;;;;;;5.25;3.70;;;;;;;13.93;73.32;100522.78;10424247;28;20135;-61
2023/05/13 00:46:03;;;;;;;7.32;4.28;;;;;;;14.16;72.79;100528.81;10423239;28;20444;-60
2023/05/13 00:51:05;;;;;;;4.95;4.45;;;;;;;14.28;72.57;100535.34;10420359;28;20061;-60
2023/05/13 00:56:06;;;;;;;7.75;5.18;;;;;;;14.41;72.41;100536.47;10422887;28;20523;-60
2023/05/13 01:01:18;;;;;;;6.63;5.35;;;;;;;14.50;72.39;100531.78;10419782;28;20053;-58
2023/05/13 01:06:35;;;;;;;7.18;5.40;;;;;;;14.56;72.23;100528.28;10424381;28;20061;-57
2023/05/13 01:11:40;;;;;;;8.80;5.97;;;;;;;14.51;72.59;100528.84;10425484;28;20069;-58
2023/05/13 01:17:07;;;;;;;5.90;5.30;;;;;;;14.55;72.57;100529.28;10418964;28;20068;-58
2023/05/13 01:22:08;;;;;;;5.53;4.68;;;;;;;14.50;72.68;100538.00;10422003;28;20041;-58
2023/05/13 01:27:10;;;;;;;7.38;4.38;;;;;;;14.55;72.63;100535.53;10423368;28;20079;-58
2023/05/13 01:32:12;;;;;;;4.63;4.22;;;;;;;14.59;72.27;100534.16;10420206;28;20449;-58
2023/05/13 01:37:14;;;;;;;5.32;3.88;;;;;;;14.59;72.36;100536.00;10422434;28;20431;-58
2023/05/13 01:42:15;;;;;;;9.07;4.13;;;;;;;14.62;72.23;100536.47;10424232;28;20132;-58
2023/05/13 01:47:17;;;;;;;4.90;4.40;;;;;;;14.62;72.16;100530.22;10418894;28;20128;-58
2023/05/13 01:52:19;;;;;;;4.97;3.97;;;;;;;14.52;72.37;100527.84;10418788;28;20107;-58
2023/05/13 01:57:21;;;;;;;6.70;4.90;;;;;;;14.54;72.43;100538.47;10416971;28;20492;-58
2023/05/13 02:02:23;;;;;;;7.88;4.72;;;;;;;14.54;72.26;100531.19;10417126;28;20135;-58
2023/05/13 02:07:24;;;;;;;4.93;4.22;;;;;;;14.53;72.25;100532.19;10424464;28;20118;-58
2023/05/13 02:12:26;;;;;;;7.88;5.13;;;;;;;14.55;72.23;100534.72;10421596;28;20144;-57
2023/05/13 02:17:27;;;;;;;5.63;3.88;;;;;;;14.38;72.47;100540.44;10423537;28;20163;-58
2023/05/13 02:22:28;;;;;;;3.97;3.58;;;;;;;14.34;72.56;100541.84;10411389;28;20127;-58
2023/05/13 02:27:30;;;;;;;4.05;3.65;;;;;;;14.32;72.34;100540.38;10417365;28;20068;-57
2023/05/13 02:32:31;;;;;;;3.70;3.35;;;;;;;14.28;72.62;100529.94;10408007;28;20137;-58
2023/05/13 02:37:33;;;;;;;4.63;3.10;;;;;;;14.34;72.14;100524.78;10419410;28;20057;-57
2023/05/13 02:42:34;;;;;;;4.97;3.10;;;;;;;14.32;71.81;100524.97;10421450;28;20479;-57
2023/05/13 02:47:35;;;;;;;6.63;4.28;;;;;;;14.29;71.78;100525.38;10420769;28;20143;-59
2023/05/13 02:52:38;;;;;;;5.13;3.70;;;;;;;14.26;71.76;100533.88;10406039;28;20056;-57
2023/05/13 02:57:39;;;;;;;5.25;4.40;;;;;;;14.22;71.74;100528.03;10370126;28;20113;-57
2023/05/13 03:02:40;;;;;;;6.45;3.47;;;;;;;14.15;71.95;100521.72;10373524;28;20145;-58
2023/05/13 03:07:42;;;;;;;5.22;4.13;;;;;;;14.07;71.67;100524.56;10378956;28;20072;-58
2023/05/13 03:12:44;;;;;;;4.68;4.22;;;;;;;13.96;71.92;100528.63;10379289;28;20457;-58
2023/05/13 03:17:45;;;;;;;5.57;4.90;;;;;;;13.85;72.08;100527.28;10379933;28;20500;-58
2023/05/13 03:22:47;;;;;;;7.15;6.10;;;;;;;13.66;72.53;100536.88;10375559;28;20045;-58
2023/05/13 03:27:48;;;;;;;8.35;6.15;;;;;;;13.59;72.66;100545.94;10374825;28;20076;-58
2023/05/13 03:32:49;;;;;;;7.53;6.03;;;;;;;13.50;72.71;100542.50;10375882;28;20136;-58
2023/05/13 03:37:51;;;;;;;7.53;6.35;;;;;;;13.33;73.06;100546.44;10375124;28;20054;-57
2023/05/13 03:42:52;;;;;;;7.13;5.80;;;;;;;13.34;72.51;100550.81;10376670;28;20058;-61
2023/05/13 03:47:54;;;;;;;8.20;6.13;;;;;;;13.30;72.73;100550.34;10379420;28;20485;-60
2023/05/13 03:52:55;;;;;;;9.30;5.88;;;;;;;13.28;72.75;100549.69;10391334;28;20159;-60
2023/05/13 03:57:57;;;;;;;11.90;5.88;;;;;;;13.21;72.76;100543.34;10398502;28;20092;-61
2023/05/13 04:02:58;;;;;;;8.00;6.78;;;;;;;13.25;73.12;100552.75;10417059;28;20555;-61
2023/05/13 04:08:00;;;;;;;9.38;6.70;;;;;;;13.36;72.46;100557.69;10420670;28;20079;-60
2023/05/13 04:13:01;;;;;;;9.95;6.45;;;;;;;13.42;72.27;100551.53;10419822;28;20114;-60
2023/05/13 04:18:02;;;;;;;9.77;6.70;;;;;;;13.48;72.46;100552.66;10420321;28;20145;-62
2023/05/13 04:23:04;;;;;;;8.60;6.22;;;;;;;13.52;72.43;100559.34;10423888;28;20050;-61
2023/05/13 04:28:06;;;;;;;12.25;9.73;;;;;;;13.53;72.17;100558.31;10426906;28;20476;-61
2023/05/13 04:33:07;;;;;;;11.77;7.60;;;;;;;13.56;72.52;100557.09;10419437;28;20087;-61
2023/05/13 04:38:09;;;;;;;7.70;6.60;;;;;;;13.60;72.35;100559.22;10428727;28;20080;-61
2023/05/13 04:43:11;;;;;;;6.43;5.75;;;;;;;13.68;72.13;100561.81;10426336;28;20413;-61
2023/05/13 04:48:12;;;;;;;6.40;5.68;;;;;;;13.79;72.04;100573.16;10421204;28;20132;-62
2023/05/13 04:53:13;;;;;;;8.15;5.07;;;;;;;13.85;71.81;100570.50;10423456;28;20045;-61
2023/05/13 04:58:15;;;;;;;5.57;4.97;;;;;;;13.88;71.98;100571.97;10425978;28;20046;-61
2023/05/13 05:03:16;;;;;;;5.40;4.90;;;;;;;13.92;71.72;100573.31;10423107;28;20049;-61
2023/05/13 05:08:18;;;;;;;6.88;4.65;;;;;;;14.05;71.59;100576.09;10428524;28;20076;-62
2023/05/13 05:13:19;;;;;;;6.15;5.40;;;;;;;14.17;71.39;100572.91;10427522;28;20064;-61
2023/05/13 05:18:20;;;;;;;7.90;5.00;;;;;;;14.28;71.27;100588.59;10421497;28;20504;-61
2023/05/13 05:23:22;;;;;;;5.63;4.88;;;;;;;14.42;71.44;100589.56;10421217;28;20049;-61
2023/05/13 05:28:23;;;;;;;8.32;4.95;;;;;;;14.63;71.08;100596.81;10419881;28;20132;-61
2023/05/13 05:33:25;;;;;;;9.23;5.47;;;;;;;14.79;70.91;100601.09;10412608;28;20500;-61
2023/05/13 05:38:27;;;;;;;6.30;4.60;;;;;;;14.90;70.88;100605.13;10425068;28;20140;-61
2023/05/13 05:43:29;;;;;;;7.53;4.70;;;;;;;15.06;70.74;100600.22;10422766;28;20657;-61
2023/05/13 05:48:30;;;;;;;5.57;4.70;;;;;;;15.20;70.36;100603.00;10423552;28;20045;-61
2023/05/13 05:53:36;;;;;;;6.13;5.30;;;;;;;15.31;70.44;100607.03;10415040;28;20380;-61
2023/05/13 05:58:38;;;;;;;6.28;5.18;;;;;;;15.44;70.11;100610.66;10421379;28;20110;-62
2023/05/13 06:03:39;;;;;;;6.68;4.32;;;;;;;15.54;70.14;100614.84;10416482;28;20447;-61
2023/05/13 06:08:41;;;;;;;5.25;4.72;;;;;;;15.77;69.79;100619.97;10417322;28;20687;-61
2023/05/13 06:13:42;;;;;;;7.50;4.45;;;;;;;15.98;69.51;100616.28;10421233;28;20456;-62
2023/05/13 06:18:44;;;;;;;6.22;4.75;;;;;;;16.21;69.27;100624.88;10421189;28;20049;-62
2023/05/13 06:23:45;;;;;;;8.35;4.03;;;;;;;16.42;68.91;100623.84;10413821;28;20055;-61
2023/05/13 06:28:47;;;;;;;4.40;3.53;;;;;;;16.71;68.64;100618.22;10419524;28;20748;-61
2023/05/13 06:33:49;;;;;;;4.60;3.78;;;;;;;16.96;68.00;100621.13;10410178;28;20053;-61
2023/05/13 06:38:52;;;;;;;3.92;2.47;;;;;;;16.99;67.86;100624.28;10411991;28;20128;-62
2023/05/13 06:43:53;;;;;;;4.28;3.13;;;;;;;17.10;67.16;100619.22;10415521;28;20537;-60
2023/05/13 06:48:56;;;;;;;4.35;3.05;;;;;;;17.07;66.80;100619.66;10416198;28;20064;-61
2023/05/13 06:53:58;;;;;;;3.72;3.22;;;;;;;17.08;66.37;100618.59;10384773;28;1027022;-63
2023/05/13 06:58:59;;;;;;;3.42;2.97;;;;;;;17.09;66.36;100623.00;10417643;28;20058;-62
2023/05/13 07:04:01;;;;;;;4.07;2.88;;;;;;;17.18;65.75;100614.41;10419108;28;20454;-62
2023/05/13 07:09:02;;;;;;;3.67;2.95;;;;;;;17.17;65.42;100620.88;10418880;28;20153;-61
2023/05/13 07:14:08;;;;;;;2.83;2.63;;;;;;;17.29;65.56;100614.81;10398718;28;20583;-61
2023/05/13 07:19:10;;;;;;;3.65;2.47;;;;;;;17.44;64.74;100621.66;10408322;28;20080;-62
2023/05/13 07:24:11;;;;;;;3.78;2.38;;;;;;;17.60;64.30;100625.75;10410970;28;20531;-62
2023/05/13 07:29:12;;;;;;;3.60;2.25;;;;;;;17.89;63.34;100612.69;10418489;28;20063;-63
2023/05/13 07:34:15;;;;;;;3.05;1.83;;;;;;;18.06;62.80;100612.19;10419244;28;20061;-61
2023/05/13 07:39:17;;;;;;;5.03;1.42;;;;;;;18.32;61.53;100603.81;10414102;28;20049;-61
2023/05/13 07:44:18;;;;;;;4.07;1.50;;;;;;;18.38;60.98;100607.53;10418447;28;21749;-62
2023/05/13 07:49:20;;;;;;;2.95;1.42;;;;;;;18.51;60.66;100604.72;10416642;28;20585;-62
2023/05/13 07:54:21;;;;;;;5.05;1.63;;;;;;;18.57;60.18;100609.28;10417415;28;20676;-61
2023/05/13 07:59:23;;;;;;;3.53;1.75;;;;;;;18.71;60.12;100609.16;10422611;28;20143;-62
2023/05/13 08:04:24;;;;;;;3.60;1.35;;;;;;;18.87;60.28;100616.78;10426173;28;20037;-62
2023/05/13 08:09:26;;;;;;;2.10;1.55;;;;;;;18.97;59.71;100622.56;10420874;28;20069;-61
2023/05/13 08:14:28;;;;;;;3.63;1.80;;;;;;;19.02;59.79;100619.16;10422146;28;20132;-62
2023/05/13 08:19:29;;;;;;;2.03;1.83;;;;;;;19.09;59.77;100611.75;10422416;28;20050;-61
2023/05/13 08:24:31;;;;;;;4.35;1.60;;;;;;;19.28;59.41;100620.78;10425108;28;20140;-61
2023/05/13 08:29:32;;;;;;;3.50;2.00;;;;;;;19.54;58.86;100610.63;10424523;28;20084;-63
2023/05/13 08:34:33;;;;;;;3.50;2.13;;;;;;;19.86;58.21;100613.16;10426525;28;20064;-61
2023/05/13 08:39:35;;;;;;;2.17;1.10;;;;;;;20.25;56.70;100605.47;10425352;28;20157;-60
2023/05/13 08:44:38;;;;;;;2.00;0.90;;;;;;;20.40;55.21;100595.75;10426937;28;20068;-62
2023/05/13 08:49:41;;;;;;;1.40;0.88;;;;;;;20.57;53.66;100603.25;10425102;28;20095;-61
2023/05/13 08:54:42;;;;;;;4.05;1.77;;;;;;;20.85;52.82;100596.28;10422328;28;20085;-61
2023/05/13 08:59:44;;;;;;;2.47;1.00;;;;;;;21.10;51.89;100593.31;10422194;28;20134;-61
2023/05/13 09:04:52;;;;;;;4.20;0.90;;;;;;;21.30;50.65;100599.19;10423859;28;20132;-60
2023/05/13 09:09:53;;;;;;;1.75;0.75;;;;;;;21.41;50.26;100593.97;10426605;28;20045;-62
2023/05/13 09:14:55;;;;;;;1.45;0.90;;;;;;;21.41;49.98;100597.53;10424192;28;20130;-63
2023/05/13 09:19:56;;;;;;;1.85;1.00;;;;;;;21.42;48.98;100593.69;10423196;28;20532;-62
2023/05/13 09:24:57;;;;;;;1.55;0.98;;;;;;;21.47;48.98;100593.03;10418603;28;20141;-62
2023/05/13 09:29:59;;;;;;;2.40;1.20;;;;;;;21.14;48.83;100600.78;10415563;28;20081;-61
2023/05/13 09:35:15;;;;;;;2.53;0.90;;;;;;;21.35;48.68;100598.50;10421435;28;20053;-63
2023/05/13 09:40:17;;;;;;;2.95;1.38;;;;;;;21.62;48.42;100596.06;10424898;28;20049;-63
2023/05/13 09:45:18;;;;;;;3.15;0.85;;;;;;;21.85;47.48;100586.91;10423516;28;20566;-64
2023/05/13 09:50:20;;;;;;;3.42;1.17;;;;;;;21.80;47.56;100586.84;10424389;28;20065;-62
2023/05/13 09:55:22;;;;;;;2.85;1.00;;;;;;;22.07;47.29;100588.97;10419706;28;20046;-60
2023/05/13 10:00:24;;;;;;;2.65;1.10;;;;;;;22.25;46.90;100587.94;10416233;28;20177;-59
2023/05/13 10:05:34;;;;;;;1.85;1.13;;;;;;;22.24;46.86;100592.59;10418176;28;20500;-61
2023/05/13 10:10:35;;;;;;;3.15;1.30;;;;;;;22.53;46.69;100589.75;10418522;28;20056;-61
2023/05/13 10:15:54;;;;;;;3.13;1.38;;;;;;;22.71;46.12;100580.44;10415535;28;20060;-62
2023/05/13 10:20:55;;;;;;;2.78;1.00;;;;;;;22.84;46.34;100571.88;10417567;28;20049;-61
2023/05/13 10:25:57;;;;;;;2.38;1.13;;;;;;;23.06;45.53;100558.22;10419612;28;20155;-63
2023/05/13 10:30:59;;;;;;;2.28;1.50;;;;;;;23.31;44.63;100568.69;10419204;28;20053;-61
2023/05/13 10:36:38;;;;;;;2.50;1.10;;;;;;;23.39;44.33;100550.13;10417524;28;20618;-58
2023/05/13 10:42:17;;;;;;;2.78;1.20;;;;;;;23.73;43.61;100546.13;10420684;28;20142;-59
2023/05/13 10:47:19;;;;;;;2.03;1.50;;;;;;;23.90;43.21;100547.97;10417992;28;20051;-62
2023/05/13 10:52:20;;;;;;;2.45;1.00;;;;;;;24.08;42.51;100538.53;10419690;28;20053;-61
2023/05/13 10:57:34;;;;;;;2.35;0.90;;;;;;;24.15;41.83;100526.22;10422106;28;20064;-60
2023/05/13 11:02:36;;;;;;;2.45;0.95;;;;;;;24.18;42.41;100529.53;10416178;28;20068;-60
2023/05/13 11:07:38;;;;;;;5.30;1.20;;;;;;;24.23;41.26;100518.56;10408822;28;20493;-61
2023/05/13 11:12:39;;;;;;;2.83;1.08;;;;;;;24.29;41.01;100528.50;10421277;28;20111;-62
2023/05/13 11:17:44;;;;;;;2.25;1.05;;;;;;;24.30;41.20;100520.00;10415898;28;20068;-60
2023/05/13 11:22:46;;;;;;;2.22;1.08;;;;;;;24.08;41.78;100524.78;10416132;28;20112;-67
2023/05/13 11:27:47;;;;;;;4.20;1.70;;;;;;;23.52;44.24;100528.63;10412989;28;20577;-66
2023/05/13 11:32:55;;;;;;;2.08;1.10;;;;;;;22.88;45.23;100525.59;10421288;28;20144;-64
2023/05/13 11:37:59;;;;;;;4.15;2.03;;;;;;;22.24;48.07;100524.13;10430185;28;20052;-64
2023/05/13 11:43:03;;;;;;;3.42;1.30;;;;;;;22.50;46.16;100519.03;10425158;28;20584;-63
2023/05/13 11:48:22;;;;;;;2.63;0.90;;;;;;;22.81;44.62;100520.31;10421290;28;20424;-65
2023/05/13 11:53:23;;;;;;;2.35;1.30;;;;;;;23.30;44.75;100519.56;10409311;28;20056;-63
2023/05/13 11:58:25;;;;;;;1.20;1.10;;;;;;;23.69;43.55;100516.69;10425655;28;20068;-65
2023/05/13 12:03:26;;;;;;;1.88;1.20;;;;;;;23.83;43.79;100514.41;10422431;28;20548;-65
2023/05/13 12:08:28;;;;;;;3.70;1.27;;;;;;;24.01;43.81;100522.25;10431155;28;20563;-64
2023/05/13 12:13:30;;;;;;;8.30;1.48;;;;;;;24.22;42.59;100514.19;10423234;28;20053;-65
2023/05/13 12:18:32;;;;;;;3.60;1.27;;;;;;;24.19;42.11;100517.44;10423062;28;20087;-64
2023/05/13 12:23:40;;;;;;;1.33;1.08;;;;;;;24.60;41.60;100515.84;10426031;28;20052;-64
2023/05/13 12:28:41;;;;;;;1.33;0.70;;;;;;;25.37;39.90;100552.00;10427361;28;20479;-64
2023/05/13 12:33:45;;;;;;;1.23;0.60;;;;;;;24.73;40.20;100556.63;10424587;28;20056;-65
2023/05/13 12:39:01;;;;;;;2.92;0.55;;;;;;;24.26;40.96;100562.84;10428836;28;20091;-66
2023/05/13 12:44:07;;;;;;;4.10;0.43;;;;;;;23.83;41.42;100577.53;10422806;28;20076;-65
2023/05/13 12:49:10;;;;;;;;;;;;;;;23.00;43.03;100572.91;10424413;28;20104;-65
2023/05/13 12:54:12;;;;;;;3.00;0.30;;;;;;;22.32;40.42;100563.97;10425451;28;20066;-63
2023/05/13 12:59:14;;;;;;;0.63;0.30;;;;;;;21.83;39.01;100552.69;10425272;28;20076;-64
2023/05/13 13:04:15;;;;;;;0.30;0.30;;;;;;;21.72;39.21;100560.69;10423992;28;20495;-66
2023/05/13 13:09:17;;;;;;;0.80;0.43;;;;;;;21.52;40.23;100541.97;10425206;28;20045;-66
2023/05/13 13:14:19;;;;;;;0.75;0.50;;;;;;;21.38;41.29;100546.84;10423105;28;20056;-63
2023/05/13 13:19:20;;;;;;;0.65;0.35;;;;;;;21.55;41.68;100552.44;10424527;28;20076;-64
2023/05/13 13:24:21;;;;;;;1.92;0.88;;;;;;;21.64;42.29;100552.84;10424140;28;20095;-64
2023/05/13 13:29:23;;;;;;;3.13;0.60;;;;;;;21.91;42.49;100550.34;10422407;28;20073;-62
2023/05/13 13:34:24;;;;;;;2.22;0.60;;;;;;;22.28;42.47;100547.19;10419600;28;20445;-63
2023/05/13 13:39:25;;;;;;;1.90;0.60;;;;;;;22.74;41.71;100536.09;10405154;28;20072;-63
2023/05/13 13:44:27;;;;;;;1.70;1.08;;;;;;;23.18;41.06;100547.13;10420189;28;20044;-65
2023/05/13 13:49:28;;;;;;;0.60;0.30;;;;;;;23.60;40.43;100538.31;10414622;28;20044;-65
2023/05/13 13:54:30;;;;;;;2.75;0.50;;;;;;;23.87;39.28;100534.75;10419602;28;20121;-64
2023/05/13 13:59:31;;;;;;;1.20;0.50;;;;;;;24.07;38.70;100528.63;10422985;28;20090;-66
2023/05/13 14:04:33;;;;;;;0.80;0.50;;;;;;;24.19;38.08;100518.31;10423668;28;20069;-65
2023/05/13 14:09:37;;;;;;;1.58;0.40;;;;;;;24.55;37.64;100513.09;10421377;28;20148;-64
2023/05/13 14:14:39;;;;;;;1.83;0.50;;;;;;;25.80;36.74;100505.84;10419321;28;20048;-64
2023/05/13 14:19:40;;;;;;;3.60;0.60;;;;;;;26.44;35.96;100506.41;10418779;28;20140;-64
2023/05/13 14:24:41;;;;;;;1.27;0.70;;;;;;;26.44;35.09;100511.94;10420055;28;20147;-65
2023/05/13 14:29:45;;;;;;;2.88;0.70;;;;;;;26.25;35.59;100503.44;10417959;28;20089;-65
2023/05/13 14:34:46;;;;;;;1.00;0.52;;;;;;;26.67;34.99;100502.28;10421739;28;20139;-65
2023/05/13 14:39:48;;;;;;;2.30;0.75;;;;;;;27.92;34.14;100502.22;10422132;28;20132;-65
2023/05/13 14:44:50;;;;;;;2.22;0.60;;;;;;;28.79;32.05;100506.97;10420682;28;20403;-65
2023/05/13 14:49:52;;;;;;;0.57;0.45;;;;;;;29.32;30.32;100503.25;10420494;28;20140;-64
2023/05/13 14:54:53;;;;;;;2.85;0.63;;;;;;;29.42;29.25;100494.81;10418801;28;20136;-64
2023/05/13 14:59:54;;;;;;;4.50;0.80;;;;;;;29.43;29.00;100495.63;10411407;28;20069;-58
2023/05/13 15:04:58;;;;;;;1.52;0.50;;;;;;;29.71;28.63;100493.00;10417230;28;20091;-61
2023/05/13 15:09:59;;;;;;;5.75;0.80;;;;;;;29.95;27.67;100487.38;10420350;28;20084;-59
2023/05/13 15:15:01;;;;;;;1.15;0.70;;;;;;;30.21;27.02;100485.81;10425809;28;20095;-62
2023/05/13 15:20:03;;;;;;;1.73;0.73;;;;;;;29.94;26.22;100478.25;10415193;28;20435;-61
2023/05/13 15:25:04;;;;;;;1.10;0.90;;;;;;;29.70;26.89;100471.94;10415537;28;20065;-61
2023/05/13 15:30:06;;;;;;;5.38;0.88;;;;;;;29.59;28.18;100474.06;10414077;28;20046;-64
2023/05/13 15:35:08;;;;;;;1.35;0.60;;;;;;;29.79;27.79;100475.72;10417589;28;20099;-63
2023/05/13 15:40:10;;;;;;;4.47;0.80;;;;;;;29.73;27.66;100466.66;10422655;28;20044;-65
2023/05/13 15:45:11;;;;;;;1.35;0.70;;;;;;;29.79;27.90;100472.94;10418687;28;20574;-62
2023/05/13 15:50:13;;;;;;;2.28;0.80;;;;;;;29.95;28.74;100470.75;10417988;28;20222;-62
2023/05/13 15:55:14;;;;;;;10.32;1.10;;;;;;;29.83;28.63;100471.22;10398020;28;20493;-63
2023/05/13 16:00:16;;;;;;;1.80;0.80;;;;;;;29.66;28.77;100464.25;10416221;28;20130;-62
2023/05/13 16:05:18;;;;;;;1.45;0.80;;;;;;;29.91;27.79;100464.97;10417654;28;20489;-64
2023/05/13 16:10:19;;;;;;;3.80;0.80;;;;;;;29.95;27.65;100467.97;10418397;28;20058;-64
2023/05/13 16:15:21;;;;;;;4.13;0.90;;;;;;;30.11;27.45;100462.97;10419836;28;20057;-64
2023/05/13 16:20:22;;;;;;;1.45;0.70;;;;;;;29.95;27.22;100460.47;10423013;28;20046;-64
2023/05/13 16:25:25;;;;;;;1.25;0.80;;;;;;;30.15;27.83;100466.78;10416885;28;20065;-63
2023/05/13 16:30:27;;;;;;;2.58;0.82;;;;;;;30.40;27.35;100458.03;10422999;28;20099;-65
2023/05/13 16:35:28;;;;;;;2.22;0.90;;;;;;;30.53;27.00;100459.19;10407200;28;20077;-64
2023/05/13 16:40:30;;;;;;;2.00;0.70;;;;;;;30.66;26.40;100445.63;10428264;28;20103;-64
2023/05/13 16:45:31;;;;;;;5.82;0.80;;;;;;;30.49;26.62;100455.38;10425860;28;20099;-63
2023/05/13 16:50:33;;;;;;;1.42;0.75;;;;;;;30.14;27.32;100449.34;10426166;28;21053;-63
2023/05/13 16:55:34;;;;;;;2.15;0.77;;;;;;;29.77;27.50;100450.25;10408629;28;20041;-63
2023/05/13 17:00:35;;;;;;;0.90;0.73;;;;;;;29.72;27.23;100450.34;10420913;28;20049;-62
2023/05/13 17:05:37;;;;;;;7.10;0.80;;;;;;;29.70;26.64;100438.69;10422356;28;20138;-64
2023/05/13 17:10:38;;;;;;;2.67;0.73;;;;;;;29.90;26.83;100434.78;10410443;28;20076;-62
2023/05/13 17:15:40;;;;;;;2.70;0.70;;;;;;;29.89;25.88;100438.69;10417728;28;20084;-62
2023/05/13 17:20:42;;;;;;;1.77;0.90;;;;;;;29.93;26.38;100436.97;10417334;28;20534;-63
2023/05/13 17:25:44;;;;;;;3.33;0.80;;;;;;;29.99;26.55;100432.97;10423348;28;20053;-63
2023/05/13 17:30:46;;;;;;;2.97;0.80;;;;;;;29.77;26.09;100431.69;10416946;28;20049;-64
2023/05/13 17:35:47;;;;;;;1.70;1.00;;;;;;;29.65;26.60;100434.06;10422432;28;20049;-64
2023/05/13 17:40:49;;;;;;;2.70;0.70;;;;;;;29.40;26.61;100426.97;10404710;28;20393;-63
2023/05/13 17:45:51;;;;;;;5.80;2.15;;;;;;;29.25;26.39;100425.28;10425600;28;20077;-61
2023/05/13 17:50:52;;;;;;;1.90;1.02;;;;;;;28.82;26.97;100431.63;10420818;28;20060;-62
2023/05/13 17:55:53;;;;;;;3.55;1.50;;;;;;;28.01;27.54;100447.16;10420484;28;20137;-62
2023/05/13 18:00:55;;;;;;;1.80;1.02;;;;;;;27.09;29.49;100441.16;10422294;28;20058;-64
2023/05/13 18:05:56;;;;;;;1.58;1.20;;;;;;;26.49;30.30;100445.75;10419196;28;20155;-61
2023/05/13 18:10:58;;;;;;;2.13;1.30;;;;;;;25.75;31.66;100444.44;10423065;28;20047;-62
2023/05/13 18:15:59;;;;;;;6.82;4.32;;;;;;;25.27;32.09;100450.16;10417987;28;20080;-65
2023/05/13 18:21:00;;;;;;;11.30;4.03;;;;;;;24.71;33.51;100445.28;10422975;28;20048;-63
2023/05/13 18:26:02;;;;;;;2.42;1.35;;;;;;;24.13;34.38;100461.63;10419281;28;20056;-62
2023/05/13 18:31:03;;;;;;;2.38;1.52;;;;;;;23.42;35.97;100462.66;10416260;28;20107;-64
2023/05/13 18:36:05;;;;;;;2.25;1.50;;;;;;;22.96;36.65;100465.66;10418835;28;20427;-64
2023/05/13 18:41:08;;;;;;;2.03;1.10;;;;;;;22.18;37.86;100473.06;10415932;28;20053;-64
2023/05/13 18:46:10;;;;;;;1.60;1.30;;;;;;;21.74;39.62;100486.53;10415442;28;20053;-64
2023/05/13 18:51:13;;;;;;;1.45;1.23;;;;;;;21.24;41.29;100484.50;10419050;28;20068;-65
2023/05/13 18:56:14;;;;;;;3.13;1.60;;;;;;;20.96;41.86;100484.22;10416572;28;20491;-74
2023/05/13 19:01:16;;;;;;;2.92;1.83;;;;;;;20.57;42.79;100489.34;10406050;28;20526;-71
2023/05/13 19:06:17;;;;;;;4.75;2.05;;;;;;;20.32;43.50;100495.09;10401635;28;20080;-73
2023/05/13 19:11:20;;;;;;;6.10;1.73;;;;;;;19.94;44.45;100501.78;10418461;28;20068;-74
2023/05/13 19:16:21;;;;;;;3.67;1.98;;;;;;;19.76;45.15;100507.31;10415415;28;20077;-70
2023/05/13 19:21:23;;;;;;;3.40;1.85;;;;;;;19.66;45.45;100499.66;10419474;28;20067;-73
2023/05/13 19:26:24;;;;;;;4.78;1.95;;;;;;;19.58;45.77;100509.00;10416564;28;20044;-73
2023/05/13 19:31:26;;;;;;;5.10;2.47;;;;;;;19.51;46.20;100510.16;10421836;28;20076;-69
2023/05/13 19:36:27;;;;;;;4.82;2.78;;;;;;;19.34;46.49;100508.09;10401208;28;20049;-70
2023/05/13 19:41:29;;;;;;;6.93;3.50;;;;;;;19.20;47.46;100514.78;10394217;28;20053;-70
2023/05/13 19:46:30;;;;;;;5.57;3.80;;;;;;;19.10;48.11;100525.41;10399154;28;20497;-70
2023/05/13 19:51:32;;;;;;;9.05;5.15;;;;;;;18.96;48.67;100531.00;10418263;28;20211;-70
2023/05/13 19:56:33;;;;;;;5.63;4.30;;;;;;;18.80;49.40;100517.97;10425114;28;20061;-72
2023/05/13 20:01:36;;;;;;;7.90;4.20;;;;;;;18.68;49.83;100527.91;10426472;28;20068;-72
2023/05/13 20:06:37;;;;;;;7.70;3.20;;;;;;;18.52;50.27;100523.88;10423456;28;20081;-71
2023/05/13 20:11:39;;;;;;;8.75;3.03;;;;;;;18.39;50.51;100524.84;10426896;28;20057;-73
2023/05/13 20:16:41;;;;;;;6.20;3.63;;;;;;;18.17;51.38;100521.69;10425043;28;20057;-72
2023/05/13 20:21:43;;;;;;;6.25;3.60;;;;;;;18.08;51.55;100533.91;10422857;28;20107;-70
2023/05/13 20:26:44;;;;;;;3.88;2.97;;;;;;;17.95;51.93;100530.22;10421170;28;20465;-72
2023/05/13 20:31:46;;;;;;;2.63;2.40;;;;;;;17.88;52.21;100528.59;10410460;28;20470;-72
2023/05/13 20:36:47;;;;;;;3.95;3.10;;;;;;;17.72;52.70;100536.19;10423957;28;20463;-72
2023/05/13 20:41:49;;;;;;;5.18;2.97;;;;;;;17.64;52.94;100531.03;10429780;28;20057;-72
2023/05/13 20:46:51;;;;;;;11.35;4.70;;;;;;;17.56;53.38;100534.00;10428768;28;20140;-67
2023/05/13 20:51:52;;;;;;;3.85;3.53;;;;;;;17.44;53.61;100528.41;10422442;28;20069;-66
2023/05/13 20:56:54;;;;;;;3.92;2.20;;;;;;;17.26;54.05;100529.13;10423211;28;20113;-65
2023/05/13 21:01:55;;;;;;;5.05;2.72;;;;;;;17.16;54.25;100524.16;10421315;28;20412;-66
2023/05/13 21:06:57;;;;;;;5.53;3.10;;;;;;;16.99;54.43;100531.09;10422749;28;20155;-66
2023/05/13 21:11:58;;;;;;;4.68;2.65;;;;;;;16.83;55.11;100526.97;10420292;28;20107;-66
2023/05/13 21:17:02;;;;;;;4.60;2.38;;;;;;;16.70;55.14;100525.06;10424902;28;20077;-66
2023/05/13 21:22:04;;;;;;;3.13;2.70;;;;;;;16.59;55.54;100531.16;10425131;28;20072;-66
2023/05/13 21:27:06;;;;;;;7.43;2.90;;;;;;;16.31;56.05;100531.38;10421713;28;20111;-66
2023/05/13 21:32:07;;;;;;;5.68;2.60;;;;;;;16.35;56.32;100524.50;10420482;28;20052;-66
2023/05/13 21:37:08;;;;;;;7.13;4.38;;;;;;;16.39;56.39;100531.16;10421543;28;20120;-66
2023/05/13 21:42:10;;;;;;;8.75;4.10;;;;;;;16.26;56.89;100521.16;10416281;28;20068;-66
2023/05/13 21:47:11;;;;;;;6.13;4.32;;;;;;;16.16;57.42;100520.75;10423142;28;20130;-66
2023/05/13 21:52:13;;;;;;;3.95;3.55;;;;;;;16.11;57.81;100517.81;10412453;28;20077;-66
2023/05/13 21:57:14;;;;;;;5.57;4.20;;;;;;;16.04;58.04;100523.25;10381626;28;20150;-66
2023/05/13 22:02:15;;;;;;;4.55;3.08;;;;;;;15.83;58.37;100529.69;10383762;28;20049;-66
2023/05/13 22:07:17;;;;;;;8.38;3.67;;;;;;;15.71;58.49;100528.59;10380260;28;20509;-66
2023/05/13 22:12:19;;;;;;;5.60;3.30;;;;;;;15.52;58.66;100525.66;10385612;28;20128;-65
2023/05/13 22:17:21;;;;;;;4.57;3.03;;;;;;;15.47;58.97;100520.00;10375246;28;20116;-66
2023/05/13 22:22:23;;;;;;;3.10;2.80;;;;;;;15.46;59.04;100527.28;10355553;28;20076;-66
2023/05/13 22:27:24;;;;;;;6.72;2.70;;;;;;;15.41;59.13;100523.53;10379396;28;20112;-66
2023/05/13 22:32:25;;;;;;;4.93;2.85;;;;;;;15.36;59.15;100523.28;10381118;28;20045;-65
2023/05/13 22:37:27;;;;;;;4.35;2.97;;;;;;;15.25;59.22;100517.41;10381960;28;20049;-66
2023/05/13 22:42:28;;;;;;;6.35;3.78;;;;;;;15.22;59.05;100514.28;10381525;28;20065;-66
2023/05/13 22:47:30;;;;;;;7.50;3.88;;;;;;;14.97;59.62;100514.81;10387124;28;20124;-66
2023/05/13 22:52:31;;;;;;;5.22;3.58;;;;;;;14.69;60.57;100522.97;10397101;28;20057;-66
2023/05/13 22:57:33;;;;;;;4.78;2.97;;;;;;;14.78;60.39;100524.47;10420700;28;20152;-66
2023/05/13 23:02:34;;;;;;;4.65;3.75;;;;;;;14.89;60.20;100512.28;10422029;28;20144;-65
2023/05/13 23:07:35;;;;;;;4.07;3.50;;;;;;;14.92;60.37;100514.56;10420542;28;20049;-67